Time;durP1;ratioP1;P1;durP2;ratioP2;P2;SDS_P1;SDS_P2;PMS_P1;PMS_P2;Temp;Humidity;BMP_temperature;BMP_pressure;BME280_temperature;BME280_humidity;BME280_pressure;Samples;Min_cycle;Max_cycle;Signal;HPM_P1;HPM_P2
2021/05/27 04:00:45;;;;;;;4.60;4.40;;;10.80;99.90;;;;;;5785349;23;20343;-66
2021/05/27 04:03:11;;;;;;;4.45;4.30;;;10.80;99.90;;;;;;4935746;29;20206;-66
2021/05/27 04:08:36;;;;;;;4.50;4.20;;;10.80;99.90;;;;;;4915231;29;20582;-66
2021/05/27 04:11:03;;;;;;;5.10;4.80;;;10.80;99.90;;;;;;4915038;29;20227;-66
2021/05/27 04:13:29;;;;;;;4.95;4.75;;;10.80;99.90;;;;;;4923654;29;20224;-66
2021/05/27 04:15:56;;;;;;;6.10;4.75;;;10.80;99.90;;;;;;4935907;29;20288;-65
2021/05/27 04:18:22;;;;;;;4.63;4.43;;;10.80;99.90;;;;;;4935813;29;20210;-66
2021/05/27 04:20:51;;;;;;;5.35;5.15;;;10.70;99.90;;;;;;4936264;29;20230;-66
2021/05/27 04:23:33;;;;;;;4.80;4.50;;;10.70;99.90;;;;;;4935645;28;20217;-66
2021/05/27 04:25:59;;;;;;;5.20;5.05;;;10.70;99.90;;;;;;4936283;29;20563;-66
2021/05/27 04:28:25;;;;;;;4.68;4.47;;;10.60;99.90;;;;;;4935605;29;20616;-66
2021/05/27 04:31:10;;;;;;;5.35;4.65;;;10.60;99.90;;;;;;4935411;29;20233;-66
2021/05/27 04:33:38;;;;;;;4.72;4.32;;;10.60;99.90;;;;;;4935535;29;20217;-66
2021/05/27 04:36:05;;;;;;;5.72;5.22;;;10.60;99.90;;;;;;4935919;29;20202;-66
2021/05/27 04:38:31;;;;;;;7.97;5.95;;;10.60;99.90;;;;;;4935721;29;20220;-66
2021/05/27 04:40:57;;;;;;;5.75;5.25;;;10.60;99.90;;;;;;4935665;29;20234;-66
2021/05/27 04:43:23;;;;;;;5.70;5.30;;;10.50;99.90;;;;;;4935220;29;20214;-66
2021/05/27 04:45:50;;;;;;;10.90;5.85;;;10.50;99.90;;;;;;4935311;29;20202;-66
2021/05/27 04:48:16;;;;;;;6.03;5.63;;;10.60;99.90;;;;;;4935034;29;20268;-65
2021/05/27 04:50:46;;;;;;;6.72;6.03;;;10.60;99.90;;;;;;4935400;29;20753;-65
2021/05/27 04:53:12;;;;;;;6.15;5.75;;;10.70;99.90;;;;;;4935280;29;20245;-66
2021/05/27 04:55:38;;;;;;;7.90;6.40;;;10.70;99.90;;;;;;4935107;29;20233;-66
2021/05/27 04:58:05;;;;;;;5.07;4.80;;;10.70;99.90;;;;;;4935362;29;20210;-66
2021/05/27 05:00:32;;;;;;;8.30;5.32;;;10.70;99.90;;;;;;4934954;29;20237;-66
2021/05/27 05:03:00;;;;;;;5.15;4.85;;;10.70;99.90;;;;;;4934736;29;20237;-66
2021/05/27 05:05:27;;;;;;;5.40;5.10;;;10.60;99.90;;;;;;4935493;28;20216;-66
2021/05/27 05:07:54;;;;;;;4.82;4.57;;;10.70;99.90;;;;;;4935299;29;20220;-66
2021/05/27 05:10:22;;;;;;;5.07;4.75;;;10.60;99.90;;;;;;4935032;29;20206;-66
2021/05/27 05:12:49;;;;;;;5.05;4.85;;;10.60;99.90;;;;;;4934847;29;20205;-66
2021/05/27 05:15:18;;;;;;;5.35;4.95;;;10.60;99.90;;;;;;4934580;29;20233;-66
2021/05/27 05:17:48;;;;;;;4.88;4.65;;;10.70;99.90;;;;;;4934762;28;20287;-65
2021/05/27 05:20:14;;;;;;;4.95;4.75;;;10.70;99.90;;;;;;4934911;29;20214;-64
2021/05/27 05:22:41;;;;;;;5.13;4.55;;;10.80;99.90;;;;;;4935148;29;20257;-66
2021/05/27 05:25:09;;;;;;;5.30;4.32;;;10.80;99.90;;;;;;4935525;29;20582;-65
2021/05/27 05:27:35;;;;;;;4.75;4.50;;;10.80;99.90;;;;;;4935444;29;20218;-65
2021/05/27 05:30:02;;;;;;;4.93;4.57;;;10.90;99.90;;;;;;4934864;29;20662;-66
2021/05/27 05:32:28;;;;;;;3.95;3.78;;;10.90;99.90;;;;;;4934631;29;20226;-66
2021/05/27 05:34:54;;;;;;;4.93;4.53;;;11.00;99.90;;;;;;4934838;29;20522;-66
2021/05/27 05:37:21;;;;;;;4.10;4.00;;;11.00;99.90;;;;;;4934809;29;20240;-66
2021/05/27 05:39:47;;;;;;;7.00;4.65;;;11.00;99.90;;;;;;4935145;29;20618;-66
2021/05/27 05:42:14;;;;;;;7.93;5.00;;;11.10;99.90;;;;;;4934584;29;20230;-67
2021/05/27 05:44:40;;;;;;;10.77;5.25;;;11.20;99.90;;;;;;4935102;29;20624;-66
2021/05/27 05:47:06;;;;;;;5.22;4.82;;;11.10;99.90;;;;;;4934167;29;20214;-66
2021/05/27 05:49:32;;;;;;;6.45;5.88;;;11.20;99.90;;;;;;4934870;28;20214;-66
2021/05/27 05:51:58;;;;;;;5.75;5.40;;;11.10;99.90;;;;;;4934647;29;20229;-66
2021/05/27 05:54:24;;;;;;;5.47;5.03;;;11.10;99.90;;;;;;4934292;29;20681;-66
2021/05/27 05:56:51;;;;;;;8.10;7.30;;;11.10;99.90;;;;;;4934426;29;20214;-66
2021/05/27 05:59:18;;;;;;;5.50;5.30;;;11.10;99.90;;;;;;4934701;29;20692;-66
2021/05/27 06:01:44;;;;;;;17.02;11.95;;;11.10;99.90;;;;;;4934012;29;20245;-66
2021/05/27 06:04:10;;;;;;;9.88;7.82;;;11.00;99.90;;;;;;4934728;29;20242;-65
2021/05/27 06:06:36;;;;;;;10.55;6.70;;;11.10;99.90;;;;;;4934394;29;20210;-65
2021/05/27 06:09:03;;;;;;;18.15;11.45;;;11.10;99.90;;;;;;4934515;29;20205;-65
2021/05/27 06:11:29;;;;;;;6.88;6.28;;;11.10;99.90;;;;;;4934193;29;20258;-65
2021/05/27 06:13:56;;;;;;;11.88;8.45;;;11.10;99.90;;;;;;4934203;29;20670;-65
2021/05/27 06:16:23;;;;;;;5.30;5.00;;;11.20;99.90;;;;;;4934077;29;20217;-65
2021/05/27 06:18:49;;;;;;;5.90;5.50;;;11.20;99.90;;;;;;4934187;28;20234;-66
2021/05/27 06:21:15;;;;;;;6.28;5.40;;;11.20;99.90;;;;;;4934402;29;20249;-66
2021/05/27 06:23:41;;;;;;;6.22;5.68;;;11.20;99.90;;;;;;4934451;29;20609;-66
2021/05/27 06:26:08;;;;;;;12.63;11.30;;;11.10;99.90;;;;;;4934278;29;20206;-66
2021/05/27 06:28:34;;;;;;;6.13;5.63;;;11.10;99.90;;;;;;4934016;29;20218;-68
2021/05/27 06:31:00;;;;;;;5.03;4.70;;;11.00;99.90;;;;;;4933612;29;20697;-67
2021/05/27 06:33:27;;;;;;;7.78;5.68;;;11.00;99.90;;;;;;4937159;29;20214;-67
2021/05/27 06:35:54;;;;;;;4.97;4.75;;;10.90;99.90;;;;;;4937693;29;20229;-67
2021/05/27 06:38:20;;;;;;;5.15;4.85;;;10.90;99.90;;;;;;4937577;29;20241;-67
2021/05/27 06:40:46;;;;;;;5.30;5.00;;;10.90;99.90;;;;;;4937366;29;20226;-67
2021/05/27 06:43:12;;;;;;;6.00;5.60;;;10.90;99.90;;;;;;4937814;28;20214;-66
2021/05/27 06:45:39;;;;;;;7.50;5.40;;;10.80;99.90;;;;;;4937639;29;20611;-67
2021/05/27 06:48:06;;;;;;;6.25;5.65;;;10.90;99.90;;;;;;4937537;29;20216;-67
2021/05/27 06:50:34;;;;;;;5.10;4.80;;;10.90;99.90;;;;;;4937611;29;20257;-67
2021/05/27 06:53:02;;;;;;;6.50;5.82;;;10.90;99.90;;;;;;4937422;29;20321;-67
2021/05/27 06:55:28;;;;;;;6.05;5.78;;;10.90;99.90;;;;;;4937347;28;20233;-67
2021/05/27 06:57:54;;;;;;;5.68;5.00;;;10.90;99.90;;;;;;4937667;29;20210;-67
2021/05/27 07:00:21;;;;;;;5.43;4.90;;;10.90;99.90;;;;;;4937069;29;20218;-67
2021/05/27 07:02:48;;;;;;;4.60;4.20;;;10.90;99.90;;;;;;4937484;29;20206;-66
2021/05/27 07:05:15;;;;;;;5.60;4.55;;;10.90;99.90;;;;;;4937618;28;20287;-67
2021/05/27 07:07:42;;;;;;;5.43;4.93;;;10.90;99.90;;;;;;4937272;29;20741;-67
2021/05/27 07:10:09;;;;;;;5.38;4.30;;;10.90;99.90;;;;;;4937162;29;20214;-67
2021/05/27 07:12:35;;;;;;;4.78;4.43;;;10.90;99.90;;;;;;4936879;29;20709;-67
2021/05/27 07:15:02;;;;;;;4.10;3.90;;;10.80;99.90;;;;;;4936825;29;20686;-67
2021/05/27 07:17:28;;;;;;;5.80;4.15;;;10.80;99.90;;;;;;4937274;29;20674;-66
2021/05/27 07:19:54;;;;;;;5.20;5.00;;;10.70;99.90;;;;;;4937409;29;20241;-67
2021/05/27 07:22:21;;;;;;;5.13;4.82;;;10.70;99.90;;;;;;4936603;29;20234;-67
2021/05/27 07:24:48;;;;;;;5.07;4.68;;;10.80;99.90;;;;;;4937077;29;20213;-67
2021/05/27 07:27:15;;;;;;;5.40;5.10;;;10.80;99.90;;;;;;4936982;29;20213;-67
2021/05/27 07:29:42;;;;;;;4.90;4.60;;;10.90;99.90;;;;;;4937080;29;20221;-67
2021/05/27 07:32:09;;;;;;;4.85;4.43;;;10.90;99.90;;;;;;4935545;28;20663;-67
2021/05/27 07:34:37;;;;;;;4.85;4.40;;;10.90;99.90;;;;;;4936842;29;20277;-67
2021/05/27 07:37:04;;;;;;;5.22;4.80;;;10.90;99.90;;;;;;4936177;29;20232;-67
2021/05/27 07:39:30;;;;;;;6.72;4.72;;;11.00;99.90;;;;;;4936930;29;20209;-67
2021/05/27 07:41:57;;;;;;;4.85;4.63;;;11.10;99.90;;;;;;4936462;28;20238;-67
2021/05/27 07:44:23;;;;;;;4.72;4.43;;;11.10;99.90;;;;;;4936528;29;20206;-67
2021/05/27 07:46:50;;;;;;;5.40;4.60;;;11.10;99.90;;;;;;4935951;29;20214;-67
2021/05/27 07:49:16;;;;;;;4.40;4.10;;;11.10;99.90;;;;;;4937039;29;20241;-66
2021/05/27 07:51:43;;;;;;;4.57;4.28;;;11.10;99.90;;;;;;4936729;29;20233;-67
2021/05/27 07:54:09;;;;;;;4.18;3.80;;;11.10;99.90;;;;;;4936190;29;20247;-66
2021/05/27 07:56:35;;;;;;;4.60;4.20;;;11.20;99.90;;;;;;4935991;29;20241;-67
2021/05/27 07:59:03;;;;;;;3.92;3.67;;;11.20;99.90;;;;;;4936477;29;20218;-66
2021/05/27 08:01:29;;;;;;;4.55;4.32;;;11.30;99.90;;;;;;4935285;29;20237;-67
2021/05/27 08:03:55;;;;;;;5.28;4.03;;;11.50;99.90;;;;;;4935737;28;20249;-66
2021/05/27 08:06:22;;;;;;;5.75;4.55;;;11.50;99.90;;;;;;4935874;29;20636;-66
2021/05/27 08:08:48;;;;;;;3.30;3.10;;;11.60;99.90;;;;;;4935860;29;20553;-66
2021/05/27 08:11:14;;;;;;;5.45;4.97;;;11.80;99.90;;;;;;4936146;29;20233;-66
2021/05/27 08:13:40;;;;;;;4.93;4.13;;;11.90;99.90;;;;;;4935818;29;20225;-66
2021/05/27 08:16:07;;;;;;;2.65;2.55;;;12.00;99.90;;;;;;4935672;29;20237;-66
2021/05/27 08:18:33;;;;;;;3.38;3.17;;;12.00;99.90;;;;;;4935689;29;20647;-66
2021/05/27 08:21:00;;;;;;;2.80;2.70;;;12.10;99.90;;;;;;4935904;29;20234;-66
2021/05/27 08:23:26;;;;;;;2.97;2.70;;;12.20;99.90;;;;;;4935406;29;20265;-66
2021/05/27 08:25:52;;;;;;;3.15;2.88;;;12.20;99.90;;;;;;4936198;29;20217;-66
2021/05/27 08:28:18;;;;;;;2.90;2.70;;;12.10;99.90;;;;;;4936130;29;20297;-67
2021/05/27 08:30:44;;;;;;;3.08;2.75;;;12.00;99.90;;;;;;4935563;28;20652;-68
2021/05/27 08:33:11;;;;;;;2.83;2.72;;;12.00;99.90;;;;;;4935640;29;20733;-68
2021/05/27 08:35:37;;;;;;;3.42;3.33;;;12.10;99.90;;;;;;4935985;29;20230;-68
2021/05/27 08:38:04;;;;;;;3.70;2.55;;;12.30;99.90;;;;;;4935711;29;20245;-68
2021/05/27 08:40:30;;;;;;;3.53;2.30;;;12.50;99.90;;;;;;4935786;29;20229;-68
2021/05/27 08:42:58;;;;;;;3.22;2.60;;;12.60;99.90;;;;;;4935267;29;20666;-68
2021/05/27 08:45:28;;;;;;;2.40;2.30;;;12.80;99.90;;;;;;4935324;29;20210;-68
2021/05/27 08:47:55;;;;;;;2.47;2.35;;;13.00;99.90;;;;;;4935635;28;20213;-66
2021/05/27 08:50:29;;;;;;;2.30;2.20;;;13.00;99.90;;;;;;4935462;29;20217;-66
2021/05/27 08:52:55;;;;;;;1.87;1.77;;;13.10;99.90;;;;;;4935272;29;20476;-66
2021/05/27 08:55:21;;;;;;;1.60;1.60;;;13.10;99.90;;;;;;4934838;29;20486;-66
2021/05/27 08:57:48;;;;;;;1.43;1.43;;;13.00;99.90;;;;;;4935627;29;20481;-66
2021/05/27 09:00:15;;;;;;;1.70;1.60;;;13.10;99.90;;;;;;4934833;28;20481;-66
2021/05/27 09:02:53;;;;;;;1.70;1.70;;;13.20;99.90;;;;;;4935252;29;20469;-66
2021/05/27 09:05:20;;;;;;;1.80;1.70;;;13.30;99.90;;;;;;4935442;29;20811;-66
2021/05/27 09:07:47;;;;;;;2.47;1.83;;;13.50;99.90;;;;;;4935514;29;20473;-66
2021/05/27 09:10:14;;;;;;;1.90;1.80;;;13.70;99.90;;;;;;4935048;28;20481;-65
2021/05/27 09:12:40;;;;;;;1.63;1.53;;;13.80;99.90;;;;;;4934954;29;20470;-65
2021/05/27 09:15:21;;;;;;;1.73;1.60;;;14.00;99.90;;;;;;4934470;29;20494;-65
2021/05/27 09:17:49;;;;;;;2.17;2.07;;;14.00;99.90;;;;;;4935267;29;20961;-67
2021/05/27 09:20:19;;;;;;;2.43;1.97;;;13.90;99.90;;;;;;4935186;29;20966;-69
2021/05/27 09:22:46;;;;;;;1.80;1.70;;;13.70;99.90;;;;;;4935449;29;20811;-69
2021/05/27 09:25:27;;;;;;;5.93;5.53;;;13.60;99.90;;;;;;4935455;29;20548;-68
2021/05/27 09:27:54;;;;;;;2.37;2.17;;;13.60;99.90;;;;;;4935279;29;20469;-69
2021/05/27 09:30:22;;;;;;;1.33;1.23;;;13.60;99.90;;;;;;4935094;29;21030;-69
2021/05/27 09:32:50;;;;;;;3.67;3.47;;;13.50;99.90;;;;;;4935218;29;20476;-69
2021/05/27 09:35:18;;;;;;;2.07;1.97;;;13.60;99.90;;;;;;4935444;29;20541;-68
2021/05/27 09:37:47;;;;;;;2.00;1.90;;;13.60;99.90;;;;;;4934981;29;20465;-67
2021/05/27 09:40:29;;;;;;;4.60;4.20;;;13.70;99.90;;;;;;4935352;29;20829;-68
2021/05/27 09:42:55;;;;;;;4.90;2.83;;;13.70;99.90;;;;;;4935095;29;20474;-68
2021/05/27 09:45:22;;;;;;;3.77;3.47;;;13.60;99.90;;;;;;4934819;29;20461;-68
2021/05/27 09:47:48;;;;;;;1.40;1.40;;;13.70;99.90;;;;;;4934551;29;20466;-68
2021/05/27 09:50:15;;;;;;;1.50;1.50;;;13.90;99.90;;;;;;4934686;29;20529;-67
2021/05/27 09:52:43;;;;;;;1.20;1.20;;;13.90;99.90;;;;;;4934960;29;20875;-68
2021/05/27 09:55:11;;;;;;;1.13;1.13;;;13.70;99.90;;;;;;4934979;29;20589;-68
2021/05/27 09:57:40;;;;;;;1.20;1.20;;;13.70;99.90;;;;;;4935102;29;20470;-68
2021/05/27 10:00:23;;;;;;;1.37;1.30;;;13.70;99.90;;;;;;4934382;29;20461;-68
2021/05/27 10:02:50;;;;;;;1.40;1.40;;;13.70;99.90;;;;;;4933867;29;20469;-68
2021/05/27 10:05:18;;;;;;;1.30;1.30;;;13.60;99.90;;;;;;4935096;29;20458;-68
2021/05/27 10:07:49;;;;;;;1.93;1.80;;;13.60;99.90;;;;;;4938391;29;20894;-68
2021/05/27 10:10:17;;;;;;;1.60;1.60;;;13.60;99.90;;;;;;4938460;29;20466;-68
2021/05/27 10:12:45;;;;;;;1.53;1.53;;;13.60;99.90;;;;;;4937950;29;20465;-67
2021/05/27 10:15:13;;;;;;;1.83;1.70;;;13.70;99.90;;;;;;4937294;28;20485;-68
2021/05/27 10:17:41;;;;;;;1.90;1.53;;;13.80;99.90;;;;;;4937509;29;20496;-68
2021/05/27 10:20:09;;;;;;;1.53;1.53;;;13.80;99.90;;;;;;4938382;29;20465;-68
2021/05/27 10:22:35;;;;;;;1.50;1.40;;;13.80;99.90;;;;;;4937988;29;20831;-68
2021/05/27 10:25:04;;;;;;;1.50;1.50;;;13.80;99.90;;;;;;4938348;29;20877;-68
2021/05/27 10:27:31;;;;;;;1.30;1.30;;;13.80;99.90;;;;;;4937937;29;20549;-68
2021/05/27 10:29:58;;;;;;;2.57;2.40;;;13.70;99.90;;;;;;4937528;29;20465;-68
2021/05/27 10:32:25;;;;;;;1.50;1.50;;;13.70;99.90;;;;;;4937646;29;20485;-68
2021/05/27 10:34:52;;;;;;;1.90;1.80;;;13.80;99.90;;;;;;4937563;29;20562;-68
2021/05/27 10:37:46;;;;;;;3.60;1.57;;;13.80;99.90;;;;;;4937806;29;20469;-68
2021/05/27 10:40:37;;;;;;;1.13;1.03;;;14.00;99.90;;;;;;4937537;29;20465;-68
2021/05/27 10:43:15;;;;;;;1.00;1.00;;;14.40;99.90;;;;;;4937638;29;20464;-69
2021/05/27 10:46:08;;;;;;;1.83;1.73;;;14.70;99.90;;;;;;4937359;29;20466;-68
2021/05/27 10:48:42;;;;;;;4.47;4.17;;;14.80;99.90;;;;;;4936776;29;20888;-68
2021/05/27 10:51:18;;;;;;;1.47;1.47;;;14.90;99.90;;;;;;4937113;29;20512;-69
2021/05/27 10:53:48;;;;;;;1.80;1.80;;;14.80;99.90;;;;;;4937446;29;20513;-68
2021/05/27 10:56:16;;;;;;;1.00;1.00;;;15.00;99.90;;;;;;4937594;29;20870;-68
2021/05/27 10:59:03;;;;;;;1.57;1.57;;;15.10;99.90;;;;;;4937727;29;20465;-68
2021/05/27 11:01:51;;;;;;;1.50;1.40;;;15.30;99.90;;;;;;4936352;29;20968;-68
2021/05/27 11:04:34;;;;;;;1.10;1.07;;;15.30;99.90;;;;;;4937097;29;20476;-68
2021/05/27 11:07:11;;;;;;;1.07;1.07;;;15.40;99.90;;;;;;4936907;29;21009;-68
2021/05/27 11:09:38;;;;;;;1.40;1.40;;;15.40;99.90;;;;;;4937387;29;20473;-69
2021/05/27 11:12:16;;;;;;;1.30;1.20;;;15.30;99.90;;;;;;4937130;29;20486;-68
2021/05/27 11:14:45;;;;;;;0.80;0.80;;;15.10;99.90;;;;;;4937794;28;21010;-68
2021/05/27 11:17:18;;;;;;;1.20;1.20;;;14.90;99.90;;;;;;4936348;29;20568;-68
2021/05/27 11:19:49;;;;;;;1.00;1.00;;;15.00;99.90;;;;;;4938042;29;20470;-68
2021/05/27 11:22:44;;;;;;;1.50;1.50;;;14.90;99.90;;;;;;4936940;29;20488;-70
2021/05/27 11:25:31;;;;;;;2.10;1.40;;;14.70;99.90;;;;;;4937073;29;20493;-69
2021/05/27 11:28:13;;;;;;;1.50;1.50;;;14.60;99.90;;;;;;4936668;28;20477;-68
2021/05/27 11:30:44;;;;;;;1.47;1.47;;;14.40;99.90;;;;;;4937406;29;20492;-68
2021/05/27 11:33:32;;;;;;;2.17;2.03;;;14.40;99.90;;;;;;4937280;29;20465;-67
2021/05/27 11:36:00;;;;;;;2.50;2.43;;;14.50;99.90;;;;;;4937538;29;20489;-66
2021/05/27 11:38:28;;;;;;;1.37;1.33;;;14.70;99.90;;;;;;4937325;29;20520;-67
2021/05/27 11:40:57;;;;;;;1.30;1.20;;;14.90;99.90;;;;;;4936754;28;20513;-67
2021/05/27 11:43:28;;;;;;;1.70;1.70;;;14.90;99.90;;;;;;4936724;29;20474;-67
2021/05/27 11:45:55;;;;;;;1.80;1.80;;;14.90;99.90;;;;;;4936181;29;20464;-67
2021/05/27 11:48:24;;;;;;;1.20;1.20;;;15.00;99.90;;;;;;4936161;29;20469;-67
2021/05/27 11:50:52;;;;;;;1.97;1.60;;;14.90;99.90;;;;;;4936498;29;20535;-67
2021/05/27 11:53:21;;;;;;;1.80;1.80;;;14.70;99.90;;;;;;4936295;29;20568;-67
2021/05/27 11:55:53;;;;;;;2.57;2.30;;;14.50;99.90;;;;;;4936088;29;20545;-67
2021/05/27 11:58:33;;;;;;;1.70;1.53;;;14.30;99.90;;;;;;4936304;29;20886;-67
2021/05/27 12:01:16;;;;;;;2.27;2.27;;;14.00;99.90;;;;;;4935934;29;20528;-67
2021/05/27 12:04:02;;;;;;;3.22;3.13;;;13.90;99.90;;;;;;4935399;29;20489;-67
2021/05/27 12:06:29;;;;;;;1.20;1.20;;;14.00;99.90;;;;;;4936205;29;20213;-67
2021/05/27 12:08:56;;;;;;;1.90;1.67;;;14.10;99.90;;;;;;4936721;29;20465;-67
2021/05/27 12:11:29;;;;;;;1.43;1.43;;;14.20;99.90;;;;;;4936299;29;20493;-67
2021/05/27 12:13:59;;;;;;;1.77;1.77;;;14.30;99.90;;;;;;4935787;29;20729;-67
2021/05/27 12:16:33;;;;;;;2.03;1.93;;;14.40;99.90;;;;;;4935302;29;20493;-67
2021/05/27 12:19:01;;;;;;;1.93;1.93;;;14.60;99.90;;;;;;4936226;29;20466;-67
2021/05/27 12:21:28;;;;;;;3.23;2.27;;;14.70;99.90;;;;;;4935813;29;20493;-67
2021/05/27 12:23:54;;;;;;;1.67;1.67;;;14.80;99.90;;;;;;4935963;29;20480;-68
2021/05/27 12:26:20;;;;;;;1.80;1.70;;;15.00;99.90;;;;;;4935824;29;20465;-68
2021/05/27 12:28:46;;;;;;;1.40;1.30;;;15.10;99.90;;;;;;4935269;29;20469;-68
2021/05/27 12:31:13;;;;;;;2.00;2.00;;;15.00;99.90;;;;;;4935322;29;20772;-69
2021/05/27 12:33:40;;;;;;;1.60;1.60;;;15.10;99.90;;;;;;4935404;29;20466;-68
2021/05/27 12:36:09;;;;;;;3.00;1.77;;;15.30;99.90;;;;;;4935694;29;20493;-68
2021/05/27 12:38:42;;;;;;;2.00;1.90;;;15.70;99.90;;;;;;4935782;29;20469;-68
2021/05/27 12:41:09;;;;;;;1.70;1.70;;;16.00;99.90;;;;;;4935421;29;20493;-68
2021/05/27 12:43:37;;;;;;;3.70;1.77;;;16.30;99.90;;;;;;4935234;29;20470;-68
2021/05/27 12:46:05;;;;;;;1.93;1.83;;;16.20;99.90;;;;;;4935222;29;20839;-68
2021/05/27 12:48:32;;;;;;;1.67;1.67;;;16.10;99.90;;;;;;4935358;29;20469;-68
2021/05/27 12:51:05;;;;;;;2.80;1.57;;;16.30;99.90;;;;;;4935519;29;20536;-68
2021/05/27 12:53:34;;;;;;;1.97;1.87;;;16.40;99.90;;;;;;4935229;29;20466;-67
2021/05/27 12:56:12;;;;;;;3.17;1.80;;;16.40;99.90;;;;;;4935171;29;21199;-69
2021/05/27 12:58:40;;;;;;;1.50;1.50;;;16.40;99.90;;;;;;4935062;29;20982;-68
2021/05/27 13:01:07;;;;;;;1.80;1.80;;;16.10;99.90;;;;;;4934382;29;20848;-68
2021/05/27 13:03:44;;;;;;;1.43;1.43;;;15.80;99.90;;;;;;4934417;29;20529;-69
2021/05/27 13:06:13;;;;;;;3.87;1.60;;;15.60;99.90;;;;;;4934675;28;20537;-69
2021/05/27 13:08:41;;;;;;;1.30;1.30;;;15.40;99.90;;;;;;4935037;29;20469;-69
2021/05/27 13:11:27;;;;;;;1.87;1.77;;;15.30;99.90;;;;;;4935186;29;20540;-70
2021/05/27 13:13:55;;;;;;;1.47;1.37;;;15.30;99.90;;;;;;4934879;29;20466;-69
2021/05/27 13:16:36;;;;;;;1.47;1.47;;;15.40;99.90;;;;;;4934638;29;20855;-69
2021/05/27 13:19:03;;;;;;;1.90;1.80;;;15.30;99.90;;;;;;4935055;29;20469;-69
2021/05/27 13:21:41;;;;;;;1.97;1.97;;;15.30;99.90;;;;;;4935041;29;20496;-68
2021/05/27 13:24:22;;;;;;;2.00;2.00;;;15.40;99.90;;;;;;4934946;29;20473;-69
2021/05/27 13:27:00;;;;;;;1.40;1.40;;;15.60;99.90;;;;;;4934508;29;20477;-68
2021/05/27 13:29:27;;;;;;;1.30;1.30;;;15.80;99.90;;;;;;4934957;28;20477;-67
2021/05/27 13:31:53;;;;;;;1.00;1.00;;;15.90;99.90;;;;;;4933910;29;20549;-67
2021/05/27 13:34:20;;;;;;;1.47;1.37;;;15.90;99.90;;;;;;4934491;29;20477;-67
2021/05/27 13:36:48;;;;;;;1.43;1.43;;;16.00;99.90;;;;;;4934395;29;20497;-67
2021/05/27 13:39:17;;;;;;;1.20;1.10;;;16.20;99.90;;;;;;4934594;29;21030;-66
2021/05/27 13:41:43;;;;;;;1.00;1.00;;;16.30;99.90;;;;;;4937052;28;20502;-66
2021/05/27 13:44:10;;;;;;;1.10;1.10;;;16.30;99.90;;;;;;4938468;29;20487;-66
2021/05/27 13:46:45;;;;;;;0.93;0.93;;;16.30;99.90;;;;;;4937742;29;20465;-67
2021/05/27 13:49:11;;;;;;;1.23;1.17;;;16.40;99.90;;;;;;4938875;29;20527;-66
2021/05/27 13:51:39;;;;;;;1.10;1.10;;;16.30;99.90;;;;;;4938386;29;20493;-66
2021/05/27 13:54:06;;;;;;;0.90;0.90;;;16.30;99.90;;;;;;4938259;29;20626;-66
2021/05/27 13:56:33;;;;;;;0.97;0.97;;;16.30;99.90;;;;;;4938382;29;21012;-66
2021/05/27 13:58:59;;;;;;;1.00;1.00;;;16.30;99.90;;;;;;4938380;29;20480;-66
2021/05/27 14:01:26;;;;;;;1.90;1.80;;;16.20;99.90;;;;;;4937533;29;20568;-68
2021/05/27 14:03:52;;;;;;;1.20;1.20;;;16.10;99.90;;;;;;4937918;29;20474;-66
2021/05/27 14:06:18;;;;;;;1.10;1.10;;;16.00;99.90;;;;;;4938013;29;20461;-66
2021/05/27 14:08:45;;;;;;;3.30;1.83;;;15.70;99.90;;;;;;4939887;28;20525;-67
2021/05/27 14:11:11;;;;;;;1.80;1.80;;;15.50;99.90;;;;;;4942725;29;20509;-67
2021/05/27 14:13:38;;;;;;;1.77;1.70;;;15.30;99.90;;;;;;4941099;29;20985;-67
2021/05/27 14:16:05;;;;;;;1.40;1.40;;;15.10;99.90;;;;;;4937528;29;20493;-67
2021/05/27 14:18:31;;;;;;;1.90;1.90;;;15.00;99.90;;;;;;4937525;29;20482;-66
2021/05/27 14:20:59;;;;;;;1.60;1.60;;;14.90;99.90;;;;;;4937816;28;20894;-66
2021/05/27 14:23:25;;;;;;;2.20;2.10;;;15.00;99.90;;;;;;4937343;29;20520;-67
2021/05/27 14:25:51;;;;;;;1.07;1.07;;;15.10;99.90;;;;;;4937778;29;20883;-66
2021/05/27 14:28:18;;;;;;;1.60;1.60;;;15.30;99.90;;;;;;4937424;29;20942;-66
2021/05/27 14:30:45;;;;;;;1.53;1.40;;;15.30;99.90;;;;;;4937499;29;20493;-66
2021/05/27 14:33:11;;;;;;;1.80;1.70;;;15.40;99.90;;;;;;4936906;29;20496;-66
2021/05/27 14:35:38;;;;;;;1.50;1.50;;;15.50;99.90;;;;;;4937557;29;20481;-67
2021/05/27 14:38:04;;;;;;;1.50;1.50;;;15.60;99.90;;;;;;4937806;29;20476;-66
2021/05/27 14:40:31;;;;;;;1.50;1.40;;;15.60;99.90;;;;;;4937821;29;20492;-66
2021/05/27 14:42:57;;;;;;;2.23;1.70;;;15.60;99.90;;;;;;4937731;29;20492;-67
2021/05/27 14:45:23;;;;;;;5.37;2.10;;;15.60;99.90;;;;;;4937216;29;20514;-67
2021/05/27 14:47:50;;;;;;;2.00;2.00;;;15.60;99.90;;;;;;4937117;29;20965;-67
2021/05/27 14:50:18;;;;;;;2.13;1.93;;;15.70;99.90;;;;;;4937325;29;20473;-66
2021/05/27 14:52:44;;;;;;;4.73;2.40;;;15.60;99.90;;;;;;4936399;29;20492;-67
2021/05/27 14:55:11;;;;;;;1.63;1.63;;;15.60;99.90;;;;;;4937387;29;20485;-66
2021/05/27 14:57:38;;;;;;;2.30;2.30;;;15.60;99.90;;;;;;4937463;29;20469;-66
2021/05/27 15:00:06;;;;;;;2.10;2.00;;;15.50;99.90;;;;;;4936982;29;20476;-66
2021/05/27 15:02:32;;;;;;;1.80;1.70;;;15.50;99.90;;;;;;4936573;29;20799;-66
2021/05/27 15:04:59;;;;;;;3.60;2.10;;;15.30;99.90;;;;;;4937008;29;20817;-66
2021/05/27 15:07:25;;;;;;;1.83;1.83;;;15.30;99.90;;;;;;4937053;29;20473;-66
2021/05/27 15:09:51;;;;;;;2.10;2.00;;;15.30;99.90;;;;;;4937348;29;20470;-66
2021/05/27 15:12:18;;;;;;;2.40;2.40;;;15.30;99.90;;;;;;4936936;29;20512;-66
2021/05/27 15:14:44;;;;;;;2.40;2.30;;;15.30;99.90;;;;;;4937125;29;20524;-66
2021/05/27 15:17:11;;;;;;;3.30;2.13;;;15.20;99.90;;;;;;4936203;29;20477;-66
2021/05/27 15:19:37;;;;;;;1.57;1.57;;;15.20;99.90;;;;;;4936925;29;20469;-66
2021/05/27 15:22:05;;;;;;;2.90;2.80;;;15.00;99.90;;;;;;4936384;28;20514;-66
2021/05/27 15:24:31;;;;;;;2.60;2.50;;;14.90;99.90;;;;;;4937191;29;20505;-66
2021/05/27 15:26:57;;;;;;;2.27;2.20;;;14.80;99.90;;;;;;4935537;29;20954;-66
2021/05/27 15:29:25;;;;;;;1.97;1.97;;;14.70;99.90;;;;;;4936038;29;20473;-66
2021/05/27 15:31:52;;;;;;;2.47;2.37;;;14.70;99.90;;;;;;4935756;29;20508;-67
2021/05/27 15:34:18;;;;;;;1.57;1.57;;;14.80;99.90;;;;;;4933380;29;20564;-67
2021/05/27 15:36:45;;;;;;;1.90;1.90;;;15.00;99.90;;;;;;4917642;29;20541;-67
2021/05/27 15:39:12;;;;;;;1.93;1.83;;;15.20;99.90;;;;;;4919155;29;20466;-67
2021/05/27 15:41:39;;;;;;;1.90;1.80;;;15.20;99.90;;;;;;4918193;29;20490;-69
2021/05/27 15:44:06;;;;;;;2.30;2.27;;;15.30;99.90;;;;;;4917574;29;20466;-70
2021/05/27 15:46:36;;;;;;;2.37;2.27;;;15.40;99.90;;;;;;4916270;29;20843;-69
2021/05/27 15:49:03;;;;;;;2.30;2.10;;;15.50;99.90;;;;;;4917704;29;20466;-70
2021/05/27 15:51:29;;;;;;;2.10;2.03;;;15.40;99.90;;;;;;4917201;29;21077;-69
2021/05/27 15:53:56;;;;;;;2.00;2.00;;;15.40;99.90;;;;;;4918955;29;20525;-70
2021/05/27 15:56:24;;;;;;;3.93;3.20;;;15.20;99.90;;;;;;4918547;29;20577;-71
2021/05/27 15:58:50;;;;;;;2.50;2.40;;;15.20;99.90;;;;;;4918371;29;20599;-71
2021/05/27 16:01:16;;;;;;;2.50;2.40;;;15.10;99.90;;;;;;4918110;29;20521;-71
2021/05/27 16:03:42;;;;;;;2.53;2.33;;;14.90;99.90;;;;;;4917976;29;20529;-71
2021/05/27 16:06:08;;;;;;;2.93;2.80;;;14.90;99.90;;;;;;4917345;29;20510;-70
2021/05/27 16:08:36;;;;;;;3.00;2.90;;;14.90;99.90;;;;;;4916846;29;20486;-70
2021/05/27 16:11:02;;;;;;;3.43;3.23;;;14.90;99.90;;;;;;4916872;29;20494;-70
2021/05/27 16:13:29;;;;;;;2.60;2.50;;;14.80;99.90;;;;;;4916627;29;20474;-70
2021/05/27 16:15:56;;;;;;;2.67;2.57;;;14.90;99.90;;;;;;4916570;29;20493;-70
2021/05/27 16:18:22;;;;;;;1.50;1.50;;;14.80;99.90;;;;;;4916855;29;20550;-70
2021/05/27 16:20:48;;;;;;;1.70;1.70;;;14.80;99.90;;;;;;4917020;29;20558;-70
2021/05/27 16:23:16;;;;;;;2.00;2.00;;;14.80;99.90;;;;;;4916785;29;20466;-70
2021/05/27 16:25:42;;;;;;;1.90;1.90;;;14.70;99.90;;;;;;4916587;29;20537;-70
2021/05/27 16:28:09;;;;;;;2.43;1.83;;;14.70;99.90;;;;;;4916961;29;20471;-68
2021/05/27 16:30:36;;;;;;;1.70;1.70;;;14.60;99.90;;;;;;4924554;29;20561;-69
2021/05/27 16:33:03;;;;;;;1.70;1.70;;;14.70;99.90;;;;;;4925500;29;20517;-70
2021/05/27 16:35:35;;;;;;;1.60;1.60;;;14.70;99.90;;;;;;4917009;29;20596;-69
2021/05/27 16:38:16;;;;;;;1.83;1.83;;;14.70;99.90;;;;;;4916835;29;20474;-69
2021/05/27 16:40:43;;;;;;;1.77;1.67;;;14.60;99.90;;;;;;4916422;29;20494;-70
2021/05/27 16:43:09;;;;;;;1.53;1.53;;;14.50;99.90;;;;;;4916573;29;20475;-69
2021/05/27 16:45:38;;;;;;;1.77;1.67;;;14.40;99.90;;;;;;4916236;29;20545;-69
2021/05/27 16:48:06;;;;;;;2.10;1.93;;;14.40;99.90;;;;;;4916175;29;20466;-69
2021/05/27 16:50:35;;;;;;;2.10;2.07;;;14.40;99.90;;;;;;4916166;29;20494;-69
2021/05/27 16:53:01;;;;;;;2.07;2.07;;;14.40;99.90;;;;;;4915777;29;20475;-67
2021/05/27 16:55:27;;;;;;;1.73;1.73;;;14.50;99.90;;;;;;4915900;29;20501;-67